This is the latest recevied weather packets stored in our database for station/object W4DEX-2. If no packets are shown the sender has not sent any weather packets the latest 10 day(s).
| Time | Temp. | Humidity | Pressure | Rain* | Wind** | Luminosity | Snow |
|---|---|---|---|---|---|---|---|
| 1777854602 | 15.56° C | 35% | 1015.3 hPa | 0 mm | 4.92 m/s, 175° | - | - |
| 1777854302 | 16.11° C | 34% | 1015.3 hPa | 0 mm | 4.47 m/s, 174° | - | - |
| 1777854002 | 16.11° C | 33% | 1015.2 hPa | 0 mm | 4.92 m/s, 177° | - | - |
| 1777853102 | 16.67° C | 32% | 1014.9 hPa | 0 mm | 4.92 m/s, 176° | - | - |
| 1777852802 | 16.67° C | 31% | 1015.1 hPa | 0 mm | 5.36 m/s, 177° | - | - |
| 1777852202 | 17.22° C | 29% | 1015 hPa | 0 mm | 4.92 m/s, 176° | - | - |
| 1777851902 | 17.22° C | 29% | 1015 hPa | 0 mm | 4.92 m/s, 176° | - | - |
| 1777851002 | 17.78° C | 28% | 1015 hPa | 0 mm | 4.92 m/s, 179° | - | - |
| 1777850702 | 17.78° C | 27% | 1014.9 hPa | 0 mm | 4.92 m/s, 176° | - | - |
| 1777849802 | 18.89° C | 27% | 1015.2 hPa | 0 mm | 4.92 m/s, 179° | - | - |
| 1777849502 | 18.89° C | 26% | 1015.1 hPa | 0 mm | 4.47 m/s, 175° | - | - |
| 1777849203 | 18.89° C | 26% | 1015.1 hPa | 0 mm | 4.47 m/s, 184° | - | - |
| 1777848902 | 18.89° C | 25% | 1015 hPa | 0 mm | 3.58 m/s, 180° | - | - |
| 1777847402 | 21.11° C | 21% | 1015.4 hPa | 0 mm | 5.36 m/s, 179° | - | - |
| 1777847102 | 20.56° C | 23% | 1015.2 hPa | 0 mm | 4.92 m/s, 173° | - | - |
| 1777846803 | 20.56° C | 24% | 1015.1 hPa | 0 mm | 4.47 m/s, 180° | - | - |
| 1777846202 | 21.11° C | 22% | 1015.2 hPa | 0 mm | 4.47 m/s, 189° | - | - |
| 1777845902 | 21.11° C | 23% | 1015.2 hPa | 0 mm | 4.47 m/s, 181° | - | - |
| 1777845603 | 20° C | 24% | 1015.2 hPa | 0 mm | 4.02 m/s, 183° | - | - |
| 1777845302 | 21.11° C | 22% | 1015.3 hPa | 0 mm | 4.47 m/s, 176° | - | - |
| 1777845002 | 20.56° C | 22% | 1015.3 hPa | 0 mm | 4.47 m/s, 182° | - | - |
| 1777844703 | 21.11° C | 23% | 1015.2 hPa | 0 mm | 3.58 m/s, 187° | - | - |
| 1777844102 | 20.56° C | 23% | 1015.3 hPa | 0 mm | 5.36 m/s, 180° | - | - |
| 1777843802 | 20.56° C | 22% | 1015.3 hPa | 0 mm | 3.13 m/s, 190° | - | - |
| 1777843202 | 21.11° C | 23% | 1015.4 hPa | 0 mm | 4.92 m/s, 185° | - | - |
* Rain latest hour (hover to see other rain measurements)
** Current wind speed in m/s (hover to see current wind gust speed)